Eugene, OR (97404)

1:37 AM PDT on October 02, 2014 (GMT -0700)
Santa Clara | Change Station
CLOSE
Current Station
Personal Weather Station
Location: Eugene, OR
Elevation: 406 ft
Nearby Weather Stations

Elev 406 ft 44.11 °N, 123.15 °W | Updated 0 second ago

Clear
Clear
45.8 °F
Feels Like 46 °F
N
2.0
Wind Variable Wind from SE
Gusts 4.0 mph

Today
High -- | Low -- °F
--% Chance of Precip.
Yesterday
High -- | Low -- °F
Precip. -- in
7:11 AM 6:51 PM
First Quarter, 56% visible
Pressure 30.21 in
Visibility 10.0 miles
Clouds Clear
Windchill 46 °F
Dew Point 42 °F
Humidity 87%
Rainfall 0.00 in
Snow Depth Not available.
UV 0 out of 12
Pollen 1.20 out of 12
PM2.5 Good
Flu Activity Not available.
METAR KEUG 020754Z AUTO 20004KT 10SM CLR 08/06 A3021 RMK AO2 SLP229 T00780056 402110061

More Conditions Fewer Conditions

Pressure 30.21 in
Visibility 10.0 miles
Clouds Clear
Windchill 46 °F
Dew Point 42 °F
Humidity 87%
Rainfall 0.00 in
Snow Depth Not available.
UV 0 out of 12
Pollen 1.20 out of 12
PM2.5 Good
Flu Activity Not available.
METAR KEUG 020754Z AUTO 20004KT 10SM CLR 08/06 A3021 RMK AO2 SLP229 T00780056 402110061

More Conditions Fewer Conditions

10-Day Weather Forecast

Almanac

Astronomy

Oct. 02, 2014 Rise Set
Actual Time 7:11 AM PDT 6:51 PM PDT
Civil Twilight 6:42 AM PDT 7:20 PM PDT
Nautical Twilight 6:09 AM PDT 7:53 PM PDT
Astronomical Twilight 5:35 AM PDT 8:27 PM PDT
Moon 3:13 PM PDT 12:22 AM PDT
Length of Visible Light 12h 37m
Length of Day
11h 39m
Tomorrow will be 3m 1s shorter.
First Quarter, 56% of the Moon is Illuminated
Today
First Quarter
Oct 8
Full
Oct 15
Last Quarter
Oct 23
New
Oct 30
First Quarter

Today's Extremes

State Highs State Lows

Community

WunderPhotos

Upload Photos

1,758,196 photos uploaded!

WunderBlogs® & News

By Dr. Jeff Masters
Director of Meteorology, Weather Underground
By Kari Strenfel
Meteorologist, Weather Underground
By Christopher C. Burt
Weather Historian, Weather Underground
October 2, 2014
October 2, 2014
October 2, 2014

Nearby

Air Quality

  Air Quality AQ Index Pollutant
Yesterday Good
PM2.5
Current Good
PM2.5
Thursday Good
PM2.5
Thursday Good
OZONE

Snow Depth

Station Depth Elevation
Madison Butte 0 in 5250 ft
Sevenmile Marsh 0 in 6200 ft
Chemult Alternate 0 in 4760 ft
Strawberry 1 in 5760 ft
Gerber Reservoir 0 in 4850 ft

Earthquake Activity

City Distance Mag. Time & Date
No recent earthquake activity has been reported nearby.
Minimum magnitude displayed is 2.5.

Coastal Water Temperatures

Place Temperature
No Stations Reporting

Nearby Weather Stations